createdAt,value
2016-10-22T00:00:09.531Z,68.15
2016-10-22T00:01:09.222Z,68.62
2016-10-22T00:02:09.229Z,68.24
2016-10-22T00:03:09.247Z,68.62
2016-10-22T00:04:09.585Z,68.43
2016-10-22T00:05:09.594Z,68.33
2016-10-22T00:06:09.297Z,68.71
2016-10-22T00:07:09.331Z,68.33
2016-10-22T00:08:09.330Z,68.24
2016-10-22T00:09:09.353Z,68.71
2016-10-22T00:10:09.369Z,68.43
2016-10-22T00:11:09.385Z,68.15
2016-10-22T00:12:09.401Z,68.33
2016-10-22T00:13:09.422Z,68.33
2016-10-22T00:14:09.440Z,68.71
2016-10-22T00:15:09.476Z,68.71
2016-10-22T00:16:09.485Z,69.48
2016-10-22T00:17:09.488Z,69.57
2016-10-22T00:18:09.847Z,69.38
2016-10-22T00:19:09.834Z,68.52
2016-10-22T00:20:09.556Z,68.33
2016-10-22T00:21:09.552Z,68.81
2016-10-22T00:22:09.572Z,68.71
2016-10-22T00:23:09.604Z,68.52
2016-10-22T00:24:09.925Z,67.95
2016-10-22T00:25:09.627Z,68.71
2016-10-22T00:26:09.971Z,68.81
2016-10-22T00:27:09.659Z,68.71
2016-10-22T00:28:09.683Z,68.15
2016-10-22T00:29:10.010Z,68.71
2016-10-22T00:30:10.060Z,68.81
2016-10-22T00:31:10.041Z,68.62
2016-10-22T00:32:09.743Z,68.52
2016-10-22T00:33:09.762Z,68.24
2016-10-22T00:34:10.104Z,68.52
2016-10-22T00:35:09.797Z,68.24
2016-10-22T00:36:09.818Z,68.15
2016-10-22T00:37:09.835Z,68.43
2016-10-22T00:38:10.163Z,68.15
2016-10-22T00:39:10.180Z,67.95
2016-10-22T00:40:09.880Z,67.86
2016-10-22T00:41:10.215Z,68.24
2016-10-22T00:42:10.233Z,68.15
2016-10-22T00:43:10.246Z,68.62
2016-10-22T00:44:09.953Z,68.81
2016-10-22T00:45:09.967Z,68.05
2016-10-22T00:46:09.983Z,68.33
2016-10-22T00:47:10.315Z,68.24
2016-10-22T00:48:10.345Z,68.33
2016-10-22T00:49:10.361Z,68.24
2016-10-22T00:50:10.054Z,68.24
2016-10-22T00:51:10.069Z,67.57
2016-10-22T00:52:10.411Z,67.47
2016-10-22T00:53:10.430Z,68.15
2016-10-22T00:54:10.438Z,68.24
2016-10-22T00:55:10.469Z,68.62
2016-10-22T00:56:10.159Z,68.52
2016-10-22T00:57:10.492Z,68.15
2016-10-22T00:58:10.192Z,68.15
2016-10-22T00:59:10.535Z,68.24
2016-10-22T01:00:10.228Z,68.05
2016-10-22T01:01:10.244Z,68.27
2016-10-22T01:02:10.577Z,68.24
2016-10-22T01:03:10.280Z,67.67
2016-10-22T01:04:10.297Z,67.67
2016-10-22T01:05:10.313Z,67.76
2016-10-22T01:06:10.336Z,67.76
2016-10-22T01:07:10.664Z,67.47
2016-10-22T01:08:10.388Z,67.41
2016-10-22T01:09:10.697Z,67.86
2016-10-22T01:10:10.404Z,68.62
2016-10-22T01:11:10.735Z,68.62
2016-10-22T01:12:10.758Z,68.62
2016-10-22T01:13:10.455Z,68.52
2016-10-22T01:14:10.959Z,68.33
2016-10-22T01:15:10.508Z,67.86
2016-10-22T01:16:10.818Z,68.05
2016-10-22T01:17:10.523Z,68.05
2016-10-22T01:18:10.539Z,67.86
2016-10-22T01:19:10.881Z,67.67
2016-10-22T01:20:10.889Z,67.95
2016-10-22T01:21:10.908Z,67.19
2016-10-22T01:22:10.923Z,67.95
2016-10-22T01:23:10.626Z,67.57
2016-10-22T01:24:10.968Z,67.86
2016-10-22T01:25:10.713Z,68.43
2016-10-22T01:26:10.701Z,68.24
2016-10-22T01:27:11.033Z,67.86
2016-10-22T01:28:10.717Z,68.15
2016-10-22T01:29:11.052Z,68.15
2016-10-22T01:30:10.758Z,68.24
2016-10-22T01:31:11.089Z,68.62
2016-10-22T01:32:11.180Z,69.48
2016-10-22T01:33:10.799Z,68.81
2016-10-22T01:34:11.135Z,68.71
2016-10-22T01:36:10.856Z,68.43
2016-10-22T01:37:11.187Z,67.86
2016-10-22T01:38:10.888Z,68.24
2016-10-22T01:39:10.903Z,67.95
2016-10-22T01:40:11.251Z,68.05
2016-10-22T01:41:11.260Z,68.24
2016-10-22T01:42:11.270Z,68.15
2016-10-22T01:43:11.288Z,69.1
2016-10-22T01:44:11.316Z,68.43
2016-10-22T01:45:11.009Z,68.05
2016-10-22T01:46:11.024Z,68.62
2016-10-22T01:47:11.072Z,68.62
2016-10-22T01:48:11.067Z,68.62
2016-10-22T01:49:11.389Z,68.62
2016-10-22T01:50:11.420Z,68.71
2016-10-22T01:51:11.129Z,69.19
2016-10-22T01:52:11.450Z,68.52
2016-10-22T01:53:11.166Z,68.33
2016-10-22T01:54:11.163Z,68.71
2016-10-22T01:55:11.182Z,68.52
2016-10-22T01:56:11.196Z,68.9
2016-10-22T01:57:11.542Z,68.9
2016-10-22T01:58:11.235Z,68.62
2016-10-22T01:59:11.255Z,68.71
2016-10-22T02:00:11.289Z,69
2016-10-22T02:01:11.603Z,68.52
2016-10-22T02:02:11.619Z,69.57
2016-10-22T02:03:11.323Z,69.19
2016-10-22T02:04:11.539Z,68.62
2016-10-22T02:05:11.358Z,69.1
2016-10-22T02:06:11.373Z,68.52
2016-10-22T02:07:11.704Z,69.76
2016-10-22T02:08:11.406Z,69.48
2016-10-22T02:09:11.422Z,69.38
2016-10-22T02:10:11.764Z,69.57
2016-10-22T02:11:11.466Z,69.38
2016-10-22T02:12:11.473Z,69.48
2016-10-22T02:13:11.810Z,69
2016-10-22T02:14:11.830Z,69.57
2016-10-22T02:15:11.846Z,69.38
2016-10-22T02:16:11.553Z,69.38
2016-10-22T02:17:11.565Z,69.76
2016-10-22T02:18:11.895Z,69.48
2016-10-22T02:19:11.916Z,69.19
2016-10-22T02:20:11.624Z,69.57
2016-10-22T02:21:11.949Z,69.57
2016-10-22T02:22:11.649Z,69.76
2016-10-22T02:23:11.668Z,70.14
2016-10-22T02:24:11.685Z,69.67
2016-10-22T02:25:12.020Z,69.57
2016-10-22T02:26:12.034Z,69.57
2016-10-22T02:27:12.055Z,69.48
2016-10-22T02:28:12.079Z,69.29
2016-10-22T02:29:11.772Z,69.29
2016-10-22T02:30:12.107Z,69.48
2016-10-22T02:31:11.806Z,69.95
2016-10-22T02:32:11.825Z,69.85
2016-10-22T02:33:11.841Z,69.48
2016-10-22T02:34:12.176Z,69.57
2016-10-22T02:35:11.875Z,69.67
2016-10-22T02:36:11.906Z,69.48
2016-10-22T02:37:12.226Z,69.48
2016-10-22T02:38:12.243Z,69.38
2016-10-22T02:39:11.947Z,69.48
2016-10-22T02:40:12.279Z,69.48
2016-10-22T02:41:11.979Z,69.57
2016-10-22T02:42:11.995Z,69.85
2016-10-22T02:43:12.028Z,69.95
2016-10-22T02:44:12.036Z,69.85
2016-10-22T02:45:12.050Z,69.67
2016-10-22T02:46:12.063Z,69.76
2016-10-22T02:47:12.396Z,70.05
2016-10-22T02:48:12.413Z,69.76
2016-10-22T02:49:12.118Z,69.95
2016-10-22T02:50:12.455Z,69.57
2016-10-22T02:51:12.151Z,69.57
2016-10-22T02:52:12.193Z,69.95
2016-10-22T02:53:12.186Z,69.85
2016-10-22T02:54:12.203Z,69.48
2016-10-22T02:55:12.218Z,69.57
2016-10-22T02:56:12.237Z,69.76
2016-10-22T02:57:12.255Z,69.95
2016-10-22T02:58:12.590Z,69.76
2016-10-22T02:59:12.608Z,69.29
2016-10-22T03:00:12.304Z,69.19
2016-10-22T03:01:12.639Z,69.57
2016-10-22T03:02:12.656Z,68.81
2016-10-22T03:03:12.670Z,69.1
2016-10-22T03:04:12.374Z,69.29
2016-10-22T03:05:12.392Z,69.1
2016-10-22T03:06:12.410Z,68.71
2016-10-22T03:07:12.425Z,68.71
2016-10-22T03:08:12.759Z,68.71
2016-10-22T03:09:12.461Z,68.71
2016-10-22T03:10:12.475Z,68.62
2016-10-22T03:11:12.810Z,68.33
2016-10-22T03:12:12.513Z,68.52
2016-10-22T03:13:12.846Z,68.15
2016-10-22T03:14:12.551Z,68.24
2016-10-22T03:15:12.882Z,68.62
2016-10-22T03:16:12.900Z,69.29
2016-10-22T03:17:12.595Z,69.38
2016-10-22T03:18:12.930Z,68.43
2016-10-22T03:19:12.952Z,68.71
2016-10-22T03:20:12.971Z,68.62
2016-10-22T03:21:12.670Z,68.24
2016-10-22T03:22:12.685Z,68.52
2016-10-22T03:23:12.700Z,68.43
2016-10-22T03:24:12.718Z,68.43
2016-10-22T03:25:13.052Z,68.52
2016-10-22T03:26:12.758Z,68.05
2016-10-22T03:27:12.770Z,68.52
2016-10-22T03:28:13.121Z,68.52
2016-10-22T03:29:12.816Z,68.81
2016-10-22T03:30:12.822Z,68.52
2016-10-22T03:31:12.840Z,68.62
2016-10-22T03:32:12.860Z,68.71
2016-10-22T03:33:13.191Z,68.52
2016-10-22T03:34:12.921Z,68.62
2016-10-22T03:35:13.249Z,69
2016-10-22T03:36:13.240Z,69.19
2016-10-22T03:37:12.943Z,69.38
2016-10-22T03:38:13.279Z,69.95
2016-10-22T03:39:12.978Z,69.95
2016-10-22T03:40:13.312Z,69.48
2016-10-22T03:41:13.012Z,69.19
2016-10-22T03:42:13.344Z,68.81
2016-10-22T03:43:13.362Z,69.67
2016-10-22T03:44:13.067Z,69.38
2016-10-22T03:45:13.397Z,69.48
2016-10-22T03:46:13.418Z,69.57
2016-10-22T03:47:13.116Z,69.38
2016-10-22T03:48:13.452Z,68.52
2016-10-22T03:49:13.466Z,69.1
2016-10-22T03:50:13.483Z,68.62
2016-10-22T03:51:13.187Z,68.81
2016-10-22T03:52:13.206Z,68.52
2016-10-22T03:53:13.217Z,68.43
2016-10-22T03:54:13.235Z,68.62
2016-10-22T03:55:13.577Z,69.67
2016-10-22T03:56:13.272Z,69.38
2016-10-22T03:57:13.602Z,69.48
2016-10-22T03:58:13.306Z,68.81
2016-10-22T03:59:13.352Z,68.9
2016-10-22T04:00:13.658Z,68.81
2016-10-22T04:01:13.382Z,68.43
2016-10-22T04:02:13.379Z,68.71
2016-10-22T04:03:13.715Z,68.43
2016-10-22T04:04:13.409Z,69
2016-10-22T04:05:13.431Z,69.38
2016-10-22T04:06:13.448Z,70.05
2016-10-22T04:07:13.463Z,69.85
2016-10-22T04:08:13.480Z,69.48
2016-10-22T04:09:13.495Z,69.48
2016-10-22T04:10:13.829Z,68.62
2016-10-22T04:11:13.533Z,68.71
2016-10-22T04:12:13.872Z,69.38
2016-10-22T04:13:13.882Z,69.76
2016-10-22T04:14:13.894Z,69.85
2016-10-22T04:15:13.915Z,70.05
2016-10-22T04:16:13.621Z,70.43
2016-10-22T04:17:13.634Z,70.05
2016-10-22T04:18:13.966Z,70.2
2016-10-22T04:19:13.688Z,69.73
2016-10-22T04:20:13.684Z,69.76
2016-10-22T04:21:14.020Z,69.29
2016-10-22T04:22:14.036Z,69.48
2016-10-22T04:23:14.057Z,69.85
2016-10-22T04:24:13.755Z,70.05
2016-10-22T04:25:13.775Z,69.29
2016-10-22T04:26:14.109Z,69.29
2016-10-22T04:27:13.810Z,69.57
2016-10-22T04:28:14.141Z,69.85
2016-10-22T04:29:13.845Z,69.82
2016-10-22T04:30:14.176Z,70.39
2016-10-22T04:31:13.875Z,70.49
2016-10-22T04:32:14.208Z,70.33
2016-10-22T04:33:14.233Z,70.39
2016-10-22T04:34:13.930Z,69.95
2016-10-22T04:35:13.945Z,69.57
2016-10-22T04:36:14.283Z,70.33
2016-10-22T04:37:14.300Z,70.97
2016-10-22T04:38:13.995Z,70.49
2016-10-22T04:39:14.015Z,71.25
2016-10-22T04:40:14.031Z,71.28
2016-10-22T04:41:14.050Z,70.58
2016-10-22T04:42:14.074Z,70.52
2016-10-22T04:43:14.084Z,70.24
2016-10-22T04:44:14.419Z,70.05
2016-10-22T04:45:14.118Z,69.76
2016-10-22T04:46:14.453Z,70.43
2016-10-22T04:47:14.468Z,69.67
2016-10-22T04:48:14.487Z,70.14
2016-10-22T04:49:14.188Z,69.57
2016-10-22T04:50:14.208Z,69.67
2016-10-22T04:51:14.568Z,69.57
2016-10-22T04:52:14.585Z,69.85
2016-10-22T04:53:14.266Z,69.67
2016-10-22T04:54:14.592Z,69.67
2016-10-22T04:55:14.607Z,69.38
2016-10-22T04:56:14.628Z,69.19
2016-10-22T04:57:14.658Z,68.52
2016-10-22T04:58:14.659Z,68.43
2016-10-22T04:59:14.358Z,68.9
2016-10-22T05:00:14.377Z,69.38
2016-10-22T05:01:14.403Z,69.76
2016-10-22T05:02:14.728Z,69.54
2016-10-22T05:03:14.747Z,69.29
2016-10-22T05:04:14.467Z,69.63
2016-10-22T05:05:14.779Z,69.67
2016-10-22T05:06:14.479Z,69.44
2016-10-22T05:07:14.501Z,69.44
2016-10-22T05:08:14.516Z,69.63
2016-10-22T05:09:14.531Z,69.63
2016-10-22T05:10:14.862Z,69.82
2016-10-22T05:11:14.881Z,69.82
2016-10-22T05:12:14.583Z,70.3
2016-10-22T05:13:14.600Z,70.3
2016-10-22T05:14:14.930Z,69.63
2016-10-22T05:15:14.952Z,70.3
2016-10-22T05:16:14.652Z,70.49
2016-10-22T05:17:14.673Z,70.2
2016-10-22T05:18:15.002Z,70.49
2016-10-22T05:19:14.710Z,70.3
2016-10-22T05:20:15.037Z,70.2
2016-10-22T05:21:14.740Z,70.49
2016-10-22T05:22:14.753Z,70.58
2016-10-22T05:23:14.768Z,69.67
2016-10-22T05:24:14.789Z,69.57
2016-10-22T05:25:14.810Z,69.85
2016-10-22T05:26:14.827Z,69.76
2016-10-22T05:27:14.840Z,69.76
2016-10-22T05:28:15.170Z,69.48
2016-10-22T05:29:14.873Z,69.29
2016-10-22T05:30:15.221Z,69.38
2016-10-22T05:31:15.223Z,69.57
2016-10-22T05:32:15.238Z,69.19
2016-10-22T05:33:14.939Z,68.71
2016-10-22T05:34:15.287Z,68.52
2016-10-22T05:35:14.979Z,69.29
2016-10-22T05:36:14.993Z,69.25
2016-10-22T05:37:15.016Z,69.76
2016-10-22T05:38:15.341Z,69.67
2016-10-22T05:39:15.041Z,69.57
2016-10-22T05:40:15.376Z,69.57
2016-10-22T05:41:15.098Z,69.29
2016-10-22T05:42:15.409Z,69.29
2016-10-22T05:43:15.425Z,68.52
2016-10-22T05:44:15.126Z,68.24
2016-10-22T05:45:15.467Z,68.77
2016-10-22T05:46:15.159Z,68.77
2016-10-22T05:47:15.174Z,68.49
2016-10-22T05:48:15.507Z,68.59
2016-10-22T05:49:15.210Z,69.25
2016-10-22T05:50:15.229Z,69.25
2016-10-22T05:51:15.563Z,69.25
2016-10-22T05:52:15.261Z,69.54
2016-10-22T05:53:15.593Z,69.57
2016-10-22T05:54:15.612Z,69.15
2016-10-22T05:55:15.312Z,69.25
2016-10-22T05:56:15.336Z,69.54
2016-10-22T05:57:15.663Z,68.62
2016-10-22T05:58:15.364Z,68.62
2016-10-22T05:59:15.378Z,68.77
2016-10-22T06:00:15.714Z,68.71
2016-10-22T06:01:15.412Z,68.3
2016-10-22T06:02:15.746Z,68.68
2016-10-22T06:03:15.760Z,68.77
2016-10-22T06:04:15.779Z,68.77
2016-10-22T06:05:15.479Z,68.87
2016-10-22T06:06:15.498Z,69.54
2016-10-22T06:07:15.514Z,69.63
2016-10-22T06:08:15.529Z,68.87
2016-10-22T06:09:15.548Z,69.63
2016-10-22T06:10:15.564Z,69.25
2016-10-22T06:11:15.596Z,69.44
2016-10-22T06:12:15.605Z,68.49
2016-10-22T06:13:15.614Z,68.59
2016-10-22T06:14:15.970Z,68.77
2016-10-22T06:15:15.967Z,68.52
2016-10-22T06:16:30.554Z,68.68
2016-10-22T06:17:15.682Z,68.77
2016-10-22T06:18:16.033Z,68.21
2016-10-22T06:19:15.730Z,68.59
2016-10-22T06:20:15.733Z,68.49
2016-10-22T06:21:15.751Z,68.4
2016-10-22T06:22:16.084Z,68.49
2016-10-22T06:23:15.783Z,68.77
2016-10-22T06:24:15.808Z,68.59
2016-10-22T06:25:16.137Z,68.68
2016-10-22T06:26:15.839Z,68.77
2016-10-22T06:27:16.169Z,68.77
2016-10-22T06:28:16.187Z,68.77
2016-10-22T06:29:15.888Z,68.68
2016-10-22T06:30:16.223Z,68.77
2016-10-22T06:31:15.919Z,68.4
2016-10-22T06:32:15.940Z,68.4
2016-10-22T06:33:16.268Z,69.15
2016-10-22T06:34:15.970Z,69.35
2016-10-22T06:35:16.302Z,69.73
2016-10-22T06:36:16.009Z,68.96
2016-10-22T06:37:16.336Z,69.25
2016-10-22T06:38:16.037Z,69.54
2016-10-22T06:39:16.374Z,69.54
2016-10-22T06:40:16.075Z,69.15
2016-10-22T06:41:16.091Z,69.25
2016-10-22T06:42:16.109Z,68.77
2016-10-22T06:43:16.125Z,69.1
2016-10-22T06:44:16.143Z,69.25
2016-10-22T06:45:16.157Z,69.1
2016-10-22T06:46:16.177Z,68.4
2016-10-22T06:47:16.191Z,69.25
2016-10-22T06:48:16.221Z,69.19
2016-10-22T06:49:16.541Z,68.52
2016-10-22T06:50:16.245Z,68.24
2016-10-22T06:51:16.259Z,68.33
2016-10-22T06:52:16.275Z,68.49
2016-10-22T06:53:16.300Z,68.59
2016-10-22T06:54:16.627Z,68.4
2016-10-22T06:55:16.345Z,68.59
2016-10-22T06:56:16.661Z,68.68
2016-10-22T06:57:16.361Z,68.49
2016-10-22T06:58:16.379Z,68.11
2016-10-22T06:59:16.711Z,68.33
2016-10-22T07:00:16.412Z,68.49
2016-10-22T07:01:16.429Z,68.81
2016-10-22T07:02:16.447Z,68.52
2016-10-22T07:03:16.462Z,68.68
2016-10-22T07:04:16.483Z,68.62
2016-10-22T07:05:16.815Z,68.71
2016-10-22T07:06:16.831Z,68.52
2016-10-22T07:07:16.532Z,68.71
2016-10-22T07:08:16.549Z,68.43
2016-10-22T07:09:16.566Z,69.38
2016-10-22T07:10:16.902Z,69.38
2016-10-22T07:11:16.601Z,69.38
2016-10-22T07:12:16.954Z,68.62
2016-10-22T07:13:16.635Z,68.81
2016-10-22T07:14:16.976Z,68.62
2016-10-22T07:15:16.671Z,68.43
2016-10-22T07:16:16.695Z,68.62
2016-10-22T07:17:16.703Z,68.24
2016-10-22T07:18:16.721Z,67.89
2016-10-22T07:19:16.739Z,67.89
2016-10-22T07:20:16.758Z,67.7
2016-10-22T07:21:16.773Z,67.41
2016-10-22T07:22:17.105Z,67.7
2016-10-22T07:23:17.121Z,66.75
2016-10-22T07:24:17.140Z,66.94
2016-10-22T07:25:17.161Z,66.46
2016-10-22T07:26:16.862Z,66.18
2016-10-22T07:27:16.879Z,66.18
2016-10-22T07:28:17.220Z,66.08
2016-10-22T07:29:17.226Z,65.7
2016-10-22T07:30:16.928Z,65.8
2016-10-22T07:31:16.946Z,65.03
2016-10-22T07:32:16.973Z,65.13
2016-10-22T07:33:16.983Z,65.8
2016-10-22T07:34:17.001Z,66.08
2016-10-22T07:35:17.335Z,65.89
2016-10-22T07:36:17.350Z,64.4
2016-10-22T07:37:17.055Z,64.65
2016-10-22T07:38:17.382Z,64.5
2016-10-22T07:39:17.089Z,64.59
2016-10-22T07:40:17.126Z,64.21
2016-10-22T07:41:17.439Z,63.73
2016-10-22T07:42:17.140Z,64.69
2016-10-22T07:43:17.474Z,64.78
2016-10-22T07:44:17.175Z,64.4
2016-10-22T07:45:17.193Z,63.92
2016-10-22T07:46:17.209Z,63.57
2016-10-22T07:47:17.251Z,63.2
2016-10-22T07:48:17.259Z,63.57
2016-10-22T07:49:17.583Z,62.52
2016-10-22T07:50:17.286Z,61.96
2016-10-22T07:51:17.617Z,62.15
2016-10-22T07:52:17.318Z,62.05
2016-10-22T07:53:17.339Z,62.24
2016-10-22T07:54:17.670Z,60.94
2016-10-22T07:55:17.689Z,60.84
2016-10-22T07:56:17.708Z,61.32
2016-10-22T07:57:17.726Z,59.89
2016-10-22T07:58:17.429Z,58.2
2016-10-22T07:59:17.447Z,56.89
2016-10-22T08:00:17.466Z,55.2
2016-10-22T08:01:17.486Z,53.99
2016-10-22T08:02:17.512Z,54.56
2016-10-22T08:03:17.540Z,53.99
2016-10-22T08:04:17.540Z,54.44
2016-10-22T08:05:17.873Z,55.2
2016-10-22T08:06:17.578Z,55.11
2016-10-22T08:07:17.602Z,55.27
2016-10-22T08:08:17.619Z,55.65
2016-10-22T08:09:17.958Z,55.27
2016-10-22T08:10:17.657Z,55.36
2016-10-22T08:11:17.992Z,54.22
2016-10-22T08:12:17.697Z,54.44
2016-10-22T08:13:17.715Z,53.96
2016-10-22T08:14:17.734Z,53.58
2016-10-22T08:15:17.765Z,52.62
2016-10-22T08:16:18.091Z,51.89
2016-10-22T08:17:17.810Z,51.98
2016-10-22T08:18:18.131Z,52.55
2016-10-22T08:19:18.151Z,53.51
2016-10-22T08:20:18.170Z,53.89
2016-10-22T08:21:17.875Z,51.24
2016-10-22T08:22:17.896Z,51.15
2016-10-22T08:23:18.234Z,50.86
2016-10-22T08:24:18.251Z,50.57
2016-10-22T08:25:17.970Z,49.64
2016-10-22T08:26:17.980Z,48.8
2016-10-22T08:27:18.313Z,46.44
2016-10-22T08:28:18.019Z,45.02
2016-10-22T08:29:18.042Z,42.53
2016-10-22T08:30:18.379Z,43.77
2016-10-22T08:31:18.406Z,43.76
2016-10-22T08:32:18.103Z,43.76
2016-10-22T08:33:18.446Z,43.76
2016-10-22T08:34:18.468Z,43.76
2016-10-22T08:35:18.174Z,44.04
2016-10-22T08:36:18.189Z,43.66
2016-10-22T08:37:18.217Z,43.18
2016-10-22T08:38:18.239Z,43.37
2016-10-22T08:39:18.292Z,42.8
2016-10-22T08:40:18.287Z,42.58
2016-10-22T08:41:18.318Z,42.87
2016-10-22T08:42:18.322Z,43.83
2016-10-22T08:43:18.340Z,43.95
2016-10-22T08:44:18.677Z,44.23
2016-10-22T08:45:18.389Z,43.95
2016-10-22T08:46:18.406Z,44.69
2016-10-22T08:47:18.426Z,46.03
2016-10-22T08:48:18.465Z,44.95
2016-10-22T08:49:18.782Z,45.53
2016-10-22T08:50:18.807Z,45.05
2016-10-22T08:51:18.521Z,45.05
2016-10-22T08:52:18.849Z,44.95
2016-10-22T08:53:18.871Z,46.3
2016-10-22T08:54:18.578Z,46.17
2016-10-22T08:55:18.607Z,47.23
2016-10-22T08:56:18.696Z,46.75
2016-10-22T08:57:18.955Z,47.8
2016-10-22T08:58:18.975Z,47.99
2016-10-22T08:59:19.056Z,47.99
2016-10-22T09:00:19.022Z,47.89
2016-10-22T09:01:18.723Z,48.09
2016-10-22T09:02:19.061Z,48.66
2016-10-22T09:03:19.081Z,47.89
2016-10-22T09:04:18.786Z,48.97
2016-10-22T09:05:18.810Z,49.26
2016-10-22T09:06:18.829Z,49.35
2016-10-22T09:07:18.851Z,49.26
2016-10-22T09:08:19.184Z,48.8
2016-10-22T09:09:18.895Z,47.27
2016-10-22T09:10:19.232Z,48.23
2016-10-22T09:11:18.936Z,48.61
2016-10-22T09:12:18.972Z,47.78
2016-10-22T09:13:18.977Z,46.91
2016-10-22T09:14:19.314Z,46.31
2016-10-22T09:15:19.334Z,46.31
2016-10-22T09:16:19.040Z,45.86
2016-10-22T09:17:19.093Z,45.65
2016-10-22T09:18:19.087Z,45.26
2016-10-22T09:19:19.103Z,45.94
2016-10-22T09:20:19.122Z,45.74
2016-10-22T09:21:19.147Z,45.26
2016-10-22T09:22:19.494Z,45.36
2016-10-22T09:23:19.188Z,44.5
2016-10-22T09:24:19.523Z,44.02
2016-10-22T09:25:19.238Z,44.98
2016-10-22T09:26:19.573Z,44.79
2016-10-22T09:27:19.277Z,43.83
2016-10-22T09:28:19.616Z,44.81
2016-10-22T09:29:19.676Z,42.9
2016-10-22T09:30:19.650Z,42.11
2016-10-22T09:31:19.674Z,43.08
2016-10-22T09:32:19.697Z,42.7
2016-10-22T09:33:19.718Z,43.18
2016-10-22T09:34:19.424Z,43.18
2016-10-22T09:35:19.445Z,42.9
2016-10-22T09:36:19.466Z,42.7
2016-10-22T09:37:19.488Z,40.88
2016-10-22T09:38:19.510Z,41.46
2016-10-22T09:39:19.531Z,40.41
2016-10-22T09:40:19.553Z,41.46
2016-10-22T09:41:19.900Z,42.03
2016-10-22T09:42:19.910Z,41.27
2016-10-22T09:43:19.618Z,39.83
2016-10-22T09:44:19.955Z,41.46
2016-10-22T09:45:19.663Z,41.09
2016-10-22T09:46:19.684Z,40.42
2016-10-22T09:47:19.708Z,40.04
2016-10-22T09:48:20.040Z,40.59
2016-10-22T09:49:19.752Z,40.33
2016-10-22T09:50:20.110Z,38.6
2016-10-22T09:51:19.791Z,38.12
2016-10-22T09:52:20.129Z,39.94
2016-10-22T09:53:19.840Z,37.93
2016-10-22T09:54:20.175Z,37.26
2016-10-22T09:55:20.197Z,38.03
2016-10-22T09:56:20.219Z,37.93
2016-10-22T09:57:19.923Z,38.6
2016-10-22T09:58:20.264Z,38.32
2016-10-22T09:59:20.300Z,38.22
2016-10-22T10:00:19.990Z,38.51
2016-10-22T10:01:20.014Z,37.93
2016-10-22T10:02:20.032Z,37.57
2016-10-22T10:03:20.371Z,38.53
2016-10-22T10:04:20.436Z,37.85
2016-10-22T10:05:20.420Z,37.95
2016-10-22T10:06:20.438Z,37.01
2016-10-22T10:07:20.462Z,35
2016-10-22T10:08:20.487Z,35.67
2016-10-22T10:09:20.512Z,36.72
2016-10-22T10:10:20.529Z,36.05
2016-10-22T10:11:20.552Z,36.05
2016-10-22T10:12:20.261Z,37.87
2016-10-22T10:13:20.287Z,36.82
2016-10-22T10:14:20.618Z,37.3
2016-10-22T10:15:20.335Z,37.01
2016-10-22T10:16:20.363Z,36.34
2016-10-22T10:17:20.685Z,36.24
2016-10-22T10:18:20.393Z,37.01
2016-10-22T10:19:20.732Z,36.91
2016-10-22T10:20:20.769Z,37.11
2016-10-22T10:21:20.785Z,35.97
2016-10-22T10:22:20.804Z,36.36
2016-10-22T10:23:20.830Z,36.46
2016-10-22T10:24:35.420Z,38.26
2016-10-22T10:25:20.870Z,36.93
2016-10-22T10:26:20.896Z,37.13
2016-10-22T10:27:20.919Z,37.51
2016-10-22T10:28:20.940Z,38.37
2016-10-22T10:29:20.959Z,37.13
2016-10-22T10:30:20.679Z,36.46
2016-10-22T10:31:20.690Z,36.16
2016-10-22T10:32:20.716Z,35.02
2016-10-22T10:33:20.742Z,34.73
2016-10-22T10:34:20.759Z,35.3
2016-10-22T10:35:21.142Z,35.11
2016-10-22T10:36:20.806Z,36.07
2016-10-22T10:37:20.832Z,34.63
2016-10-22T10:38:21.167Z,35.97
2016-10-22T10:39:21.224Z,36.44
2016-10-22T10:40:20.898Z,35.86
2016-10-22T10:41:20.925Z,35.96
2016-10-22T10:42:21.258Z,35.38
2016-10-22T10:43:21.282Z,35.1
2016-10-22T10:44:21.303Z,35.96
2016-10-22T10:45:21.325Z,34.33
2016-10-22T10:46:21.071Z,34.71
2016-10-22T10:47:21.373Z,35.86
2016-10-22T10:48:21.083Z,35.86
2016-10-22T10:49:21.430Z,36.53
2016-10-22T10:50:21.126Z,36.63
2016-10-22T10:51:21.166Z,36.72
2016-10-22T10:52:21.176Z,36.84
2016-10-22T10:53:21.193Z,36.16
2016-10-22T10:54:21.220Z,34.92
2016-10-22T10:55:21.239Z,33.84
2016-10-22T10:56:21.263Z,34.71
2016-10-22T10:57:21.600Z,36.53
2016-10-22T10:58:21.315Z,35.77
2016-10-22T10:59:21.333Z,35.28
2016-10-22T11:00:21.354Z,35.57
2016-10-22T11:01:21.695Z,36.82
2016-10-22T11:02:21.717Z,35.67
2016-10-22T11:03:21.736Z,35.57
2016-10-22T11:04:21.444Z,36.34
2016-10-22T11:05:21.784Z,36.72
2016-10-22T11:06:21.504Z,37.11
2016-10-22T11:07:21.833Z,36.91
2016-10-22T11:08:21.851Z,36.82
2016-10-22T11:09:21.877Z,35.57
2016-10-22T11:10:21.581Z,35.86
2016-10-22T11:11:21.920Z,36.34
2016-10-22T11:12:21.944Z,38.26
2016-10-22T11:13:21.966Z,37.3
2016-10-22T11:14:21.680Z,37.59
2016-10-22T11:15:22.045Z,38.16
2016-10-22T11:16:21.754Z,37.13
2016-10-22T11:17:22.097Z,36.74
2016-10-22T11:18:21.764Z,37.6
2016-10-22T11:19:21.825Z,36.26
2016-10-22T11:20:22.129Z,35.03
2016-10-22T11:21:21.835Z,35.32
2016-10-22T11:22:21.858Z,35.99
2016-10-22T11:23:21.890Z,35.89
2016-10-22T11:24:22.220Z,33.69
2016-10-22T11:25:22.256Z,33.21
2016-10-22T11:26:22.262Z,34.94
2016-10-22T11:27:21.971Z,36.47
2016-10-22T11:28:21.996Z,35.22
2016-10-22T11:29:22.024Z,35.89
2016-10-22T11:30:22.042Z,36.11
2016-10-22T11:31:22.067Z,36.11
2016-10-22T11:32:22.091Z,35.82
2016-10-22T11:33:22.431Z,35.53
2016-10-22T11:34:22.139Z,35.43
2016-10-22T11:35:22.478Z,34.09
2016-10-22T11:36:22.182Z,35.05
2016-10-22T11:37:22.536Z,34.28
2016-10-22T11:38:22.546Z,34.38
2016-10-22T11:39:22.565Z,34.28
2016-10-22T11:40:22.595Z,33.7
2016-10-22T11:41:22.628Z,34.47
2016-10-22T11:42:22.684Z,34.47
2016-10-22T11:43:22.661Z,33.9
2016-10-22T11:44:22.685Z,34.95
2016-10-22T11:45:22.724Z,33.51
2016-10-22T11:46:22.733Z,33.23
2016-10-22T11:47:22.442Z,32.46
2016-10-22T11:48:22.463Z,33.13
2016-10-22T11:49:22.487Z,33.61
2016-10-22T11:50:22.514Z,32.65
2016-10-22T11:51:22.851Z,32.44
2016-10-22T11:52:22.872Z,32.73
2016-10-22T11:53:22.593Z,32.44
2016-10-22T11:54:22.615Z,32.82
2016-10-22T11:55:22.632Z,34.63
2016-10-22T11:56:22.654Z,33.77
2016-10-22T11:57:22.992Z,33.58
2016-10-22T11:58:22.703Z,34.53
2016-10-22T11:59:22.725Z,35.69
2016-10-22T12:00:23.061Z,36.46
2016-10-22T12:01:22.770Z,35.21
2016-10-22T12:02:23.111Z,34.34
2016-10-22T12:03:22.819Z,35.49
2016-10-22T12:04:22.853Z,36.07
2016-10-22T12:05:22.864Z,35.88
2016-10-22T12:06:23.205Z,35.97
2016-10-22T12:07:23.228Z,36.57
2016-10-22T12:08:23.257Z,35.89
2016-10-22T12:09:22.963Z,35.99
2016-10-22T12:10:22.985Z,36.09
2016-10-22T12:11:23.000Z,35.99
2016-10-22T12:12:23.027Z,34.65
2016-10-22T12:13:23.364Z,34.65
2016-10-22T12:14:23.068Z,35.51
2016-10-22T12:15:23.093Z,37.32
2016-10-22T12:16:23.439Z,35.71
2016-10-22T12:17:23.454Z,35.8
2016-10-22T12:18:23.487Z,35.13
2016-10-22T12:19:23.185Z,35.42
2016-10-22T12:20:23.211Z,35.51
2016-10-22T12:21:23.226Z,35.61
2016-10-22T12:22:23.254Z,36.18
2016-10-22T12:23:23.598Z,36.18
2016-10-22T12:24:23.310Z,34.86
2016-10-22T12:25:23.323Z,35.05
2016-10-22T12:26:23.664Z,36.68
2016-10-22T12:27:23.690Z,35.53
2016-10-22T12:28:23.712Z,33.61
2016-10-22T12:29:23.415Z,34.86
2016-10-22T12:30:23.756Z,34.67
2016-10-22T12:31:23.784Z,33.51
2016-10-22T12:32:23.805Z,32.65
2016-10-22T12:33:23.531Z,33.99
2016-10-22T12:34:23.534Z,34.09
2016-10-22T12:35:23.559Z,34.28
2016-10-22T12:36:23.581Z,35.63
2016-10-22T12:37:23.919Z,32.65
2016-10-22T12:38:23.630Z,32.26
2016-10-22T12:39:23.648Z,33.32
2016-10-22T12:40:24.002Z,32.95
2016-10-22T12:41:23.702Z,33.15
2016-10-22T12:42:24.043Z,33.72
2016-10-22T12:43:23.747Z,33.53
2016-10-22T12:44:23.769Z,32.38
2016-10-22T12:45:24.108Z,32.55
2016-10-22T12:46:24.135Z,33.23
2016-10-22T12:47:23.865Z,33.23
2016-10-22T12:48:23.874Z,33.23
2016-10-22T12:49:23.895Z,32.26
2016-10-22T12:50:23.913Z,34.47
2016-10-22T12:51:23.948Z,33.13
2016-10-22T12:52:24.277Z,33.8
2016-10-22T12:53:24.017Z,32.93
2016-10-22T12:54:24.007Z,33.32
2016-10-22T12:55:24.347Z,34.09
2016-10-22T12:56:24.375Z,33.13